createdAt,value
2022-12-12T00:02:25.455Z,5.83
2022-12-12T00:04:58.063Z,5.50
2022-12-12T00:07:28.069Z,6.07
2022-12-12T00:09:57.495Z,5.10
2022-12-12T00:12:27.100Z,6.13
2022-12-12T00:14:56.038Z,5.70
2022-12-12T00:17:26.521Z,5.70
2022-12-12T00:19:55.619Z,6.07
2022-12-12T00:22:24.056Z,5.43
2022-12-12T00:24:52.656Z,5.90
2022-12-12T00:27:22.208Z,5.50
2022-12-12T00:29:54.552Z,5.70
2022-12-12T00:32:24.946Z,5.00
2022-12-12T00:34:54.423Z,6.60
2022-12-12T00:37:25.157Z,6.00
2022-12-12T00:39:54.355Z,5.30
2022-12-12T00:42:23.271Z,5.63
2022-12-12T00:44:52.232Z,6.17
2022-12-12T00:47:22.567Z,5.53
2022-12-12T00:49:53.991Z,7.33
2022-12-12T00:52:22.939Z,7.20
2022-12-12T00:54:52.267Z,5.50
2022-12-12T00:57:22.207Z,6.33
2022-12-12T00:59:51.852Z,5.90
2022-12-12T01:02:27.797Z,5.90
2022-12-12T01:04:58.596Z,6.30
2022-12-12T01:07:28.677Z,5.43
2022-12-12T01:09:58.568Z,5.90
2022-12-12T01:12:26.963Z,5.27
2022-12-12T01:14:56.504Z,5.73
2022-12-12T01:17:26.226Z,6.43
2022-12-12T01:19:57.234Z,5.20
2022-12-12T01:22:27.379Z,5.33
2022-12-12T01:24:57.722Z,6.00
2022-12-12T01:27:27.077Z,5.63
2022-12-12T01:29:58.436Z,6.10
2022-12-12T01:32:27.837Z,6.57
2022-12-12T01:34:59.011Z,5.57
2022-12-12T01:37:27.665Z,5.80
2022-12-12T01:39:56.912Z,5.10
2022-12-12T01:42:27.764Z,6.50
2022-12-12T01:44:57.162Z,6.57
2022-12-12T01:47:27.633Z,6.27
2022-12-12T01:50:06.809Z,6.07
2022-12-12T01:52:45.438Z,5.77
2022-12-12T01:55:21.408Z,7.53
2022-12-12T01:57:56.139Z,5.90
2022-12-12T02:00:25.751Z,6.27
2022-12-12T02:02:56.389Z,6.10
2022-12-12T02:05:33.123Z,6.27
2022-12-12T02:08:07.738Z,7.20
2022-12-12T02:10:37.671Z,6.17
2022-12-12T02:13:12.947Z,7.50
2022-12-12T02:15:50.842Z,7.10
2022-12-12T02:18:31.237Z,6.00
2022-12-12T02:21:18.942Z,6.37
2022-12-12T02:24:32.374Z,8.07
2022-12-12T02:27:47.586Z,7.23
2022-12-12T02:30:23.507Z,6.10
2022-12-12T02:33:28.112Z,6.67
2022-12-12T02:36:10.594Z,7.47
2022-12-12T02:38:56.015Z,6.00
2022-12-12T02:41:35.571Z,6.20
2022-12-12T02:44:19.343Z,7.20
2022-12-12T02:46:57.708Z,6.20
2022-12-12T02:49:37.826Z,5.63
2022-12-12T02:52:11.574Z,6.83
2022-12-12T02:54:41.312Z,7.07
2022-12-12T02:57:16.606Z,6.40
2022-12-12T02:59:51.609Z,7.13
2022-12-12T03:03:36.707Z,6.70
2022-12-12T03:07:05.444Z,6.03
2022-12-12T03:09:52.919Z,6.37
2022-12-12T03:12:35.005Z,6.47
2022-12-12T03:15:15.730Z,5.50
2022-12-12T03:17:56.113Z,6.37
2022-12-12T03:20:34.438Z,6.10
2022-12-12T03:23:12.142Z,6.37
2022-12-12T03:25:49.452Z,7.10
2022-12-12T03:28:28.204Z,7.17
2022-12-12T03:31:04.224Z,6.47
2022-12-12T03:33:43.007Z,5.90
2022-12-12T03:36:20.274Z,6.33
2022-12-12T03:38:57.477Z,7.40
2022-12-12T03:41:33.095Z,6.80
2022-12-12T03:44:13.355Z,6.80
2022-12-12T03:46:54.161Z,6.53
2022-12-12T03:49:29.249Z,6.03
2022-12-12T03:52:08.055Z,6.60
2022-12-12T03:54:47.153Z,5.83
2022-12-12T03:57:23.711Z,6.67
2022-12-12T03:59:59.637Z,5.20
2022-12-12T04:02:39.846Z,6.60
2022-12-12T04:05:18.330Z,6.60
2022-12-12T04:07:53.692Z,5.87
2022-12-12T04:10:45.485Z,5.83
2022-12-12T04:13:32.199Z,6.47
2022-12-12T04:16:10.367Z,6.50
2022-12-12T04:18:51.057Z,6.63
2022-12-12T04:21:51.791Z,7.20
2022-12-12T04:24:31.746Z,6.40
2022-12-12T04:27:10.907Z,5.83
2022-12-12T04:29:46.938Z,6.53
2022-12-12T04:32:25.865Z,6.40
2022-12-12T04:35:00.689Z,6.67
2022-12-12T04:37:34.178Z,6.37
2022-12-12T04:40:09.643Z,6.10
2022-12-12T04:42:48.264Z,5.40
2022-12-12T04:45:22.618Z,5.40
2022-12-12T04:47:54.756Z,6.10
2022-12-12T04:50:27.025Z,6.30
2022-12-12T04:53:00.063Z,6.40
2022-12-12T04:55:34.599Z,6.30
2022-12-12T04:58:07.307Z,6.93
2022-12-12T05:00:48.892Z,6.13
2022-12-12T05:03:25.282Z,6.23
2022-12-12T05:06:01.331Z,6.40
2022-12-12T05:08:35.643Z,7.10
2022-12-12T05:11:08.434Z,7.87
2022-12-12T05:13:42.441Z,7.17
2022-12-12T05:16:21.542Z,6.03
2022-12-12T05:18:51.647Z,5.73
2022-12-12T05:21:21.581Z,6.10
2022-12-12T05:23:50.611Z,6.10
2022-12-12T05:26:25.153Z,5.43
2022-12-12T05:28:56.424Z,5.80
2022-12-12T05:31:25.886Z,7.00
2022-12-12T05:33:55.047Z,5.37
2022-12-12T05:36:24.299Z,5.90
2022-12-12T05:38:53.803Z,5.57
2022-12-12T05:41:23.222Z,5.77
2022-12-12T05:43:52.619Z,5.40
2022-12-12T05:46:23.730Z,5.70
2022-12-12T05:48:53.437Z,5.70
2022-12-12T05:51:22.652Z,5.60
2022-12-12T05:53:52.684Z,6.90
2022-12-12T05:56:22.700Z,6.53
2022-12-12T05:58:53.054Z,6.23
2022-12-12T06:01:23.507Z,6.40
2022-12-12T06:03:52.674Z,6.37
2022-12-12T06:06:21.294Z,5.03
2022-12-12T06:08:51.755Z,6.07
2022-12-12T06:11:22.802Z,4.80
2022-12-12T06:13:52.735Z,5.77
2022-12-12T06:16:23.773Z,6.00
2022-12-12T06:18:53.652Z,6.97
2022-12-12T06:21:24.762Z,5.53
2022-12-12T06:23:54.643Z,6.27
2022-12-12T06:26:23.437Z,5.67
2022-12-12T06:28:52.456Z,6.30
2022-12-12T06:31:22.983Z,4.90
2022-12-12T06:33:52.108Z,6.00
2022-12-12T06:36:25.017Z,5.30
2022-12-12T06:38:54.417Z,5.80
2022-12-12T06:41:25.593Z,8.33
2022-12-12T06:43:55.579Z,8.60
2022-12-12T06:46:29.572Z,5.80
2022-12-12T06:48:59.082Z,6.40
2022-12-12T06:51:32.790Z,5.80
2022-12-12T06:54:01.658Z,6.13
2022-12-12T06:56:31.325Z,5.10
2022-12-12T06:59:01.154Z,4.23
2022-12-12T07:01:31.692Z,4.40
2022-12-12T07:04:01.147Z,5.17
2022-12-12T07:06:31.438Z,4.47
2022-12-12T07:09:03.100Z,5.33
2022-12-12T07:11:31.853Z,5.33
2022-12-12T07:14:03.804Z,4.73
2022-12-12T07:16:34.825Z,4.23
2022-12-12T07:19:03.975Z,3.40
2022-12-12T07:21:33.119Z,4.33
2022-12-12T07:24:02.650Z,3.40
2022-12-12T07:26:32.212Z,4.17
2022-12-12T07:29:03.841Z,4.13
2022-12-12T07:31:36.191Z,3.40
2022-12-12T07:34:06.495Z,4.10
2022-12-12T07:36:35.881Z,2.80
2022-12-12T07:39:05.730Z,3.63
2022-12-12T07:41:36.474Z,3.50
2022-12-12T07:44:06.433Z,3.43
2022-12-12T07:46:37.077Z,3.60
2022-12-12T07:49:06.290Z,3.90
2022-12-12T07:51:36.487Z,4.40
2022-12-12T07:54:05.919Z,3.97
2022-12-12T07:56:40.399Z,3.23
2022-12-12T07:59:09.614Z,3.13
2022-12-12T08:01:41.605Z,3.20
2022-12-12T08:04:11.160Z,4.40
2022-12-12T08:06:39.643Z,4.10
2022-12-12T08:09:09.890Z,5.10
2022-12-12T08:11:46.114Z,5.23
2022-12-12T08:14:16.846Z,4.97
2022-12-12T08:16:50.178Z,6.00
2022-12-12T08:19:19.682Z,5.67
2022-12-12T08:21:48.350Z,5.63
2022-12-12T08:24:19.056Z,5.93
2022-12-12T08:26:50.726Z,6.10
2022-12-12T08:29:20.613Z,5.57
2022-12-12T08:31:50.892Z,6.03
2022-12-12T08:34:20.817Z,6.50
2022-12-12T08:36:49.713Z,5.33
2022-12-12T08:39:19.463Z,5.43
2022-12-12T08:41:50.374Z,6.10
2022-12-12T08:44:22.413Z,5.63
2022-12-12T08:46:53.020Z,5.57
2022-12-12T08:49:21.677Z,5.63
2022-12-12T08:51:51.640Z,5.83
2022-12-12T08:54:21.554Z,6.80
2022-12-12T08:56:51.184Z,5.50
2022-12-12T08:59:22.037Z,5.30
2022-12-12T09:01:53.491Z,6.00
2022-12-12T09:04:23.701Z,6.20
2022-12-12T09:06:52.139Z,5.83
2022-12-12T09:09:21.756Z,6.37
2022-12-12T09:11:51.162Z,5.77
2022-12-12T09:14:20.586Z,5.23
2022-12-12T09:16:51.563Z,5.93
2022-12-12T09:19:21.017Z,5.50
2022-12-12T09:21:50.537Z,6.80
2022-12-12T09:24:19.755Z,5.87
2022-12-12T09:26:50.368Z,6.90
2022-12-12T09:29:19.655Z,6.63
2022-12-12T09:31:48.924Z,6.90
2022-12-12T09:34:19.589Z,5.80
2022-12-12T09:36:50.295Z,5.67
2022-12-12T09:39:20.959Z,6.13
2022-12-12T09:41:50.630Z,6.57
2022-12-12T09:44:22.680Z,6.37
2022-12-12T09:46:57.296Z,6.30
2022-12-12T09:49:43.719Z,6.37
2022-12-12T09:52:17.069Z,5.40
2022-12-12T09:54:46.741Z,6.70
2022-12-12T09:57:47.514Z,7.10
2022-12-12T10:00:20.574Z,7.07
2022-12-12T10:03:13.946Z,6.20
2022-12-12T10:06:13.495Z,6.00
2022-12-12T10:08:57.020Z,6.63
2022-12-12T10:11:51.294Z,5.57
2022-12-12T10:14:29.078Z,6.00
2022-12-12T10:17:01.308Z,7.10
2022-12-12T10:19:37.428Z,6.40
2022-12-12T10:22:25.567Z,6.13
2022-12-12T10:25:03.387Z,5.60
2022-12-12T10:27:32.583Z,5.67
2022-12-12T10:30:16.957Z,5.47
2022-12-12T10:33:14.839Z,4.80
2022-12-12T10:35:56.161Z,5.20
2022-12-12T10:38:55.034Z,6.83
2022-12-12T10:41:34.453Z,6.60
2022-12-12T10:44:12.165Z,6.30
2022-12-12T10:46:52.375Z,5.47
2022-12-12T10:49:25.417Z,6.30
2022-12-12T10:51:58.841Z,5.90
2022-12-12T10:54:38.751Z,6.07
2022-12-12T10:57:22.485Z,6.77
2022-12-12T10:59:54.129Z,6.47
2022-12-12T11:02:31.491Z,5.63
2022-12-12T11:05:09.293Z,6.50
2022-12-12T11:07:44.312Z,6.17
2022-12-12T11:10:33.735Z,6.00
2022-12-12T11:13:15.864Z,5.40
2022-12-12T11:15:51.944Z,6.20
2022-12-12T11:18:23.743Z,6.70
2022-12-12T11:20:57.800Z,6.57
2022-12-12T11:23:31.248Z,6.47
2022-12-12T11:26:06.612Z,5.50
2022-12-12T11:28:38.933Z,5.90
2022-12-12T11:31:14.345Z,5.70
2022-12-12T11:33:54.445Z,5.27
2022-12-12T11:36:32.092Z,5.87
2022-12-12T11:39:14.142Z,5.00
2022-12-12T11:42:02.396Z,5.20
2022-12-12T11:44:38.745Z,5.77
2022-12-12T11:47:29.469Z,5.80
2022-12-12T11:50:02.853Z,5.30
2022-12-12T11:52:35.889Z,4.97
2022-12-12T11:55:15.863Z,4.77
2022-12-12T11:58:08.740Z,5.23
2022-12-12T12:00:47.184Z,5.30
2022-12-12T12:03:31.075Z,5.30
2022-12-12T12:06:33.551Z,5.20
2022-12-12T12:09:23.690Z,5.13
2022-12-12T12:12:08.160Z,6.37
2022-12-12T12:15:31.622Z,5.33
2022-12-12T12:18:30.479Z,4.33
2022-12-12T12:21:29.691Z,5.00
2022-12-12T12:24:34.001Z,5.00
2022-12-12T12:27:14.646Z,5.00
2022-12-12T12:30:07.231Z,4.20
2022-12-12T12:32:50.206Z,4.90
2022-12-12T12:35:30.984Z,4.97
2022-12-12T12:38:24.425Z,5.30
2022-12-12T12:41:16.072Z,5.20
2022-12-12T12:44:17.563Z,4.70
2022-12-12T12:46:57.197Z,4.50
2022-12-12T12:49:33.980Z,5.10
2022-12-12T12:52:14.164Z,5.03
2022-12-12T12:54:48.976Z,4.33
2022-12-12T12:57:26.535Z,4.43
2022-12-12T13:00:02.185Z,4.50
2022-12-12T13:02:48.610Z,5.10
2022-12-12T13:05:28.550Z,4.23
2022-12-12T13:08:14.446Z,4.30
2022-12-12T13:10:49.504Z,4.43
2022-12-12T13:13:28.513Z,3.90
2022-12-12T13:16:07.404Z,4.43
2022-12-12T13:18:47.061Z,4.73
2022-12-12T13:21:29.308Z,4.00
2022-12-12T13:24:06.065Z,5.20
2022-12-12T13:26:46.592Z,4.30
2022-12-12T13:29:36.284Z,4.33
2022-12-12T13:33:14.366Z,5.10
2022-12-12T13:35:49.914Z,4.23
2022-12-12T13:38:24.806Z,4.23
2022-12-12T13:41:00.150Z,4.23
2022-12-12T13:43:44.085Z,4.67
2022-12-12T13:46:42.338Z,3.90
2022-12-12T13:49:55.614Z,4.60
2022-12-12T13:52:31.636Z,4.47
2022-12-12T13:55:24.105Z,3.90
2022-12-12T13:58:19.496Z,4.40
2022-12-12T14:00:49.012Z,4.07
2022-12-12T14:03:31.519Z,3.77
2022-12-12T14:06:14.174Z,3.60
2022-12-12T14:08:52.870Z,4.10
2022-12-12T14:11:37.702Z,4.17
2022-12-12T14:14:21.697Z,5.30
2022-12-12T14:16:59.262Z,3.97
2022-12-12T14:19:35.401Z,5.10
2022-12-12T14:22:05.045Z,4.33
2022-12-12T14:25:07.675Z,4.17
2022-12-12T14:28:04.616Z,4.60
2022-12-12T14:30:46.406Z,4.57
2022-12-12T14:34:22.427Z,4.60
2022-12-12T14:37:32.598Z,4.23
2022-12-12T14:40:19.776Z,5.20
2022-12-12T14:43:19.678Z,4.20
2022-12-12T14:45:57.998Z,5.97
2022-12-12T14:48:30.528Z,5.53
2022-12-12T14:51:06.681Z,5.80
2022-12-12T14:53:47.394Z,6.00
2022-12-12T14:56:21.128Z,5.77
2022-12-12T14:59:00.363Z,4.83
2022-12-12T15:01:34.957Z,5.70
2022-12-12T15:04:08.372Z,5.87
2022-12-12T15:06:39.781Z,5.53
2022-12-12T15:09:20.405Z,5.60
2022-12-12T15:11:51.076Z,5.20
2022-12-12T15:14:26.453Z,6.40
2022-12-12T15:17:02.993Z,6.17
2022-12-12T15:19:38.574Z,6.30
2022-12-12T15:22:17.433Z,5.70
2022-12-12T15:24:47.314Z,6.10
2022-12-12T15:27:24.048Z,7.67
2022-12-12T15:29:54.003Z,8.03
2022-12-12T15:32:26.658Z,7.33
2022-12-12T15:35:16.622Z,6.63
2022-12-12T15:37:55.047Z,5.40
2022-12-12T15:40:32.311Z,5.67
2022-12-12T15:43:08.547Z,5.27
2022-12-12T15:45:40.915Z,7.03
2022-12-12T15:48:17.471Z,5.80
2022-12-12T15:50:58.923Z,5.20
2022-12-12T15:53:31.528Z,7.10
2022-12-12T15:56:05.136Z,5.70
2022-12-12T15:58:41.368Z,6.20
2022-12-12T16:01:21.946Z,6.60
2022-12-12T16:04:00.389Z,5.63
2022-12-12T16:06:32.396Z,5.97
2022-12-12T16:09:18.726Z,5.67
2022-12-12T16:11:49.996Z,6.50
2022-12-12T16:14:40.209Z,5.50
2022-12-12T16:17:17.608Z,6.13
2022-12-12T16:19:56.445Z,5.23
2022-12-12T16:22:37.330Z,5.15
2022-12-12T16:25:18.968Z,5.90
2022-12-12T16:27:52.916Z,6.00
2022-12-12T16:30:24.490Z,5.40
2022-12-12T16:32:53.744Z,5.80
2022-12-12T16:35:26.167Z,6.60
2022-12-12T16:37:55.325Z,5.50
2022-12-12T16:40:25.980Z,5.07
2022-12-12T16:43:09.410Z,5.63
2022-12-12T16:45:41.894Z,5.40
2022-12-12T16:48:16.723Z,6.27
2022-12-12T16:50:46.873Z,5.97
2022-12-12T16:53:16.545Z,6.03
2022-12-12T16:55:50.067Z,5.90
2022-12-12T16:58:21.414Z,6.37
2022-12-12T17:00:54.697Z,6.17
2022-12-12T17:03:25.365Z,6.30
2022-12-12T17:05:54.565Z,6.00
2022-12-12T17:08:23.369Z,6.40
2022-12-12T17:11:10.203Z,6.03
2022-12-12T17:13:48.112Z,5.60
2022-12-12T17:16:24.151Z,6.20
2022-12-12T17:18:58.531Z,4.80
2022-12-12T17:21:27.743Z,6.67
2022-12-12T17:23:57.273Z,7.47
2022-12-12T17:26:26.982Z,5.87
2022-12-12T17:28:56.075Z,7.10
2022-12-12T17:31:26.972Z,5.53
2022-12-12T17:33:56.688Z,6.60
2022-12-12T17:36:25.917Z,7.07
2022-12-12T17:38:55.442Z,6.37
2022-12-12T17:41:24.504Z,6.57
2022-12-12T17:43:56.583Z,6.90
2022-12-12T17:46:28.784Z,6.97
2022-12-12T17:49:02.057Z,6.80
2022-12-12T17:51:30.972Z,6.50
2022-12-12T17:54:01.025Z,6.50
2022-12-12T17:56:31.128Z,6.53
2022-12-12T17:58:59.770Z,7.17
2022-12-12T18:01:32.635Z,6.27
2022-12-12T18:04:03.416Z,6.67
2022-12-12T18:06:35.278Z,7.10
2022-12-12T18:09:06.075Z,6.37
2022-12-12T18:11:39.175Z,5.67
2022-12-12T18:14:10.325Z,8.23
2022-12-12T18:16:41.117Z,8.23
2022-12-12T18:19:12.350Z,6.90
2022-12-12T18:24:33.274Z,6.10
2022-12-12T18:27:03.696Z,8.17
2022-12-12T18:29:34.371Z,7.17
2022-12-12T18:32:06.535Z,7.40
2022-12-12T18:34:36.936Z,6.87
2022-12-12T18:37:06.504Z,6.97
2022-12-12T18:39:36.334Z,6.40
2022-12-12T18:42:05.721Z,6.77
2022-12-12T18:44:34.823Z,7.37
2022-12-12T18:47:04.983Z,6.83
2022-12-12T18:49:35.193Z,7.00
2022-12-12T18:52:05.526Z,7.20
2022-12-12T18:54:34.637Z,7.67
2022-12-12T18:57:04.174Z,6.97
2022-12-12T18:59:33.381Z,7.83
2022-12-12T19:02:03.771Z,7.10
2022-12-12T19:04:33.168Z,7.33
2022-12-12T19:07:03.106Z,7.43
2022-12-12T19:09:32.701Z,6.27
2022-12-12T19:12:02.763Z,7.80
2022-12-12T19:17:26.753Z,7.67
2022-12-12T19:19:56.776Z,6.97
2022-12-12T19:25:18.976Z,6.50
2022-12-12T19:27:48.649Z,6.60
2022-12-12T19:30:18.025Z,6.17
2022-12-12T19:32:49.182Z,6.40
2022-12-12T19:35:20.105Z,5.83
2022-12-12T19:37:49.463Z,6.07
2022-12-12T19:40:19.743Z,6.60
2022-12-12T19:42:50.073Z,6.87
2022-12-12T19:45:20.126Z,6.73
2022-12-12T19:47:50.240Z,6.90
2022-12-12T19:50:20.199Z,6.87
2022-12-12T19:52:49.103Z,7.23
2022-12-12T19:55:20.095Z,7.70
2022-12-12T19:57:50.216Z,7.70
2022-12-12T20:00:21.439Z,7.90
2022-12-12T20:02:52.317Z,6.83
2022-12-12T20:05:21.923Z,6.90
2022-12-12T20:07:51.716Z,7.00
2022-12-12T20:10:21.551Z,6.10
2022-12-12T20:12:58.263Z,6.30
2022-12-12T20:15:29.890Z,7.50
2022-12-12T20:18:02.112Z,5.80
2022-12-12T20:20:31.890Z,7.30
2022-12-12T20:23:01.398Z,7.53
2022-12-12T20:25:30.257Z,8.40
2022-12-12T20:28:00.680Z,7.30
2022-12-12T20:30:30.868Z,7.37
2022-12-12T20:33:02.706Z,7.80
2022-12-12T20:35:35.322Z,7.83
2022-12-12T20:38:04.424Z,7.37
2022-12-12T20:40:34.206Z,8.10
2022-12-12T20:43:03.823Z,6.20
2022-12-12T20:45:37.492Z,6.63
2022-12-12T20:48:10.416Z,7.10
2022-12-12T20:50:39.083Z,7.67
2022-12-12T20:53:07.875Z,8.50
2022-12-12T20:55:37.468Z,7.90
2022-12-12T20:58:06.760Z,7.50
2022-12-12T21:00:36.889Z,7.00
2022-12-12T21:03:07.642Z,7.00
2022-12-12T21:05:37.032Z,6.77
2022-12-12T21:08:07.295Z,7.63
2022-12-12T21:10:37.348Z,7.37
2022-12-12T21:13:07.256Z,7.60
2022-12-12T21:15:36.559Z,7.97
2022-12-12T21:18:09.235Z,7.67
2022-12-12T21:20:39.414Z,7.60
2022-12-12T21:23:09.798Z,8.33
2022-12-12T21:25:40.064Z,8.10
2022-12-12T21:28:09.847Z,8.80
2022-12-12T21:30:43.262Z,9.87
2022-12-12T21:33:13.759Z,9.80
2022-12-12T21:35:44.372Z,9.57
2022-12-12T21:38:13.398Z,9.90
2022-12-12T21:40:43.175Z,8.40
2022-12-12T21:43:12.119Z,9.20
2022-12-12T21:45:41.937Z,8.70
2022-12-12T21:48:13.619Z,9.90
2022-12-12T21:50:43.476Z,8.57
2022-12-12T21:53:30.078Z,8.80
2022-12-12T21:56:04.056Z,9.17
2022-12-12T21:58:33.669Z,9.03
2022-12-12T22:01:07.902Z,8.57
2022-12-12T22:03:39.140Z,8.17
2022-12-12T22:06:12.452Z,9.67
2022-12-12T22:08:41.807Z,8.23
2022-12-12T22:11:11.877Z,8.40
2022-12-12T22:13:42.584Z,8.20
2022-12-12T22:16:17.572Z,8.37
2022-12-12T22:18:49.556Z,9.07
2022-12-12T22:21:21.574Z,7.83
2022-12-12T22:23:55.521Z,9.10
2022-12-12T22:26:28.143Z,8.50
2022-12-12T22:28:59.382Z,9.50
2022-12-12T22:31:30.889Z,8.23
2022-12-12T22:34:03.875Z,8.13
2022-12-12T22:36:37.721Z,8.53
2022-12-12T22:39:12.278Z,8.60
2022-12-12T22:41:41.870Z,8.77
2022-12-12T22:44:16.845Z,8.90
2022-12-12T22:46:47.902Z,8.20
2022-12-12T22:49:22.632Z,9.50
2022-12-12T22:51:51.535Z,8.80
2022-12-12T22:54:20.786Z,8.50
2022-12-12T22:56:49.949Z,8.80
2022-12-12T22:59:19.928Z,8.80
2022-12-12T23:01:48.408Z,10.10
2022-12-12T23:04:19.022Z,9.73
2022-12-12T23:06:48.043Z,9.07
2022-12-12T23:09:21.833Z,9.97
2022-12-12T23:11:50.804Z,11.10
2022-12-12T23:14:22.876Z,8.60
2022-12-12T23:16:53.725Z,8.57
2022-12-12T23:19:28.811Z,9.80
2022-12-12T23:21:57.885Z,9.57
2022-12-12T23:24:27.288Z,10.20
2022-12-12T23:26:56.429Z,9.37
2022-12-12T23:29:26.876Z,9.17
2022-12-12T23:31:56.014Z,9.50
2022-12-12T23:34:26.724Z,8.80
2022-12-12T23:36:58.222Z,9.97
2022-12-12T23:39:29.151Z,10.33
2022-12-12T23:41:59.014Z,9.17
2022-12-12T23:44:29.394Z,10.07
2022-12-12T23:46:58.810Z,9.00
2022-12-12T23:49:28.751Z,9.90
2022-12-12T23:51:59.904Z,10.10
2022-12-12T23:54:33.725Z,11.10
2022-12-12T23:57:03.870Z,11.70
2022-12-12T23:59:32.897Z,11.33
